sensor_id;sensor_type;location;lat;lon;timestamp;P1;durP1;ratioP1;P2;durP2;ratioP2
65238;SDS011;51827;51.186;6.926;2023-11-21T00:00:02;2.50;;;1.50;;
65238;SDS011;51827;51.186;6.926;2023-11-21T00:01:04;2.53;;;1.80;;
65238;SDS011;51827;51.186;6.926;2023-11-21T00:02:05;2.83;;;1.80;;
65238;SDS011;51827;51.186;6.926;2023-11-21T00:03:05;3.33;;;1.90;;
65238;SDS011;51827;51.186;6.926;2023-11-21T00:04:05;2.97;;;1.67;;
65238;SDS011;51827;51.186;6.926;2023-11-21T00:05:09;2.73;;;1.60;;
65238;SDS011;51827;51.186;6.926;2023-11-21T00:06:10;3.13;;;1.77;;
65238;SDS011;51827;51.186;6.926;2023-11-21T00:07:10;3.22;;;1.60;;
65238;SDS011;51827;51.186;6.926;2023-11-21T00:08:11;3.50;;;1.90;;
65238;SDS011;51827;51.186;6.926;2023-11-21T00:09:11;2.47;;;1.70;;
65238;SDS011;51827;51.186;6.926;2023-11-21T00:10:11;2.80;;;1.67;;
65238;SDS011;51827;51.186;6.926;2023-11-21T00:11:12;2.90;;;1.80;;
65238;SDS011;51827;51.186;6.926;2023-11-21T00:12:12;2.77;;;1.80;;
65238;SDS011;51827;51.186;6.926;2023-11-21T00:13:12;3.17;;;1.60;;
65238;SDS011;51827;51.186;6.926;2023-11-21T00:14:13;3.53;;;1.80;;
65238;SDS011;51827;51.186;6.926;2023-11-21T00:15:13;3.03;;;1.90;;
65238;SDS011;51827;51.186;6.926;2023-11-21T00:16:14;2.88;;;1.90;;
65238;SDS011;51827;51.186;6.926;2023-11-21T00:17:14;3.37;;;2.10;;
65238;SDS011;51827;51.186;6.926;2023-11-21T00:18:14;3.50;;;1.90;;
65238;SDS011;51827;51.186;6.926;2023-11-21T00:19:14;2.93;;;1.67;;
65238;SDS011;51827;51.186;6.926;2023-11-21T00:20:15;3.60;;;2.13;;
65238;SDS011;51827;51.186;6.926;2023-11-21T00:21:15;3.77;;;1.80;;
65238;SDS011;51827;51.186;6.926;2023-11-21T00:22:15;7.33;;;2.10;;
65238;SDS011;51827;51.186;6.926;2023-11-21T00:23:15;3.30;;;1.93;;
65238;SDS011;51827;51.186;6.926;2023-11-21T00:24:16;3.13;;;1.70;;
65238;SDS011;51827;51.186;6.926;2023-11-21T00:25:16;3.13;;;1.83;;
65238;SDS011;51827;51.186;6.926;2023-11-21T00:26:16;3.77;;;2.30;;
65238;SDS011;51827;51.186;6.926;2023-11-21T00:27:17;2.95;;;1.70;;
65238;SDS011;51827;51.186;6.926;2023-11-21T00:28:17;3.43;;;1.63;;
65238;SDS011;51827;51.186;6.926;2023-11-21T00:29:17;3.27;;;1.83;;
65238;SDS011;51827;51.186;6.926;2023-11-21T00:30:17;3.23;;;1.80;;
65238;SDS011;51827;51.186;6.926;2023-11-21T00:31:18;4.13;;;1.70;;
65238;SDS011;51827;51.186;6.926;2023-11-21T00:32:18;3.93;;;1.87;;
65238;SDS011;51827;51.186;6.926;2023-11-21T00:33:18;3.00;;;1.80;;
65238;SDS011;51827;51.186;6.926;2023-11-21T00:34:18;4.13;;;1.87;;
65238;SDS011;51827;51.186;6.926;2023-11-21T00:35:19;4.13;;;2.00;;
65238;SDS011;51827;51.186;6.926;2023-11-21T00:36:19;4.07;;;1.60;;
65238;SDS011;51827;51.186;6.926;2023-11-21T00:37:19;3.10;;;1.90;;
65238;SDS011;51827;51.186;6.926;2023-11-21T00:38:19;2.40;;;1.47;;
65238;SDS011;51827;51.186;6.926;2023-11-21T00:39:19;2.83;;;1.90;;
65238;SDS011;51827;51.186;6.926;2023-11-21T00:40:20;3.40;;;2.10;;
65238;SDS011;51827;51.186;6.926;2023-11-21T00:41:20;3.33;;;1.77;;
65238;SDS011;51827;51.186;6.926;2023-11-21T00:42:20;2.70;;;1.70;;
65238;SDS011;51827;51.186;6.926;2023-11-21T00:43:20;3.07;;;1.77;;
65238;SDS011;51827;51.186;6.926;2023-11-21T00:44:21;2.83;;;1.70;;
65238;SDS011;51827;51.186;6.926;2023-11-21T00:45:21;4.23;;;2.13;;
65238;SDS011;51827;51.186;6.926;2023-11-21T00:46:21;2.50;;;1.50;;
65238;SDS011;51827;51.186;6.926;2023-11-21T00:47:22;4.97;;;1.80;;
65238;SDS011;51827;51.186;6.926;2023-11-21T00:48:22;3.10;;;1.57;;
65238;SDS011;51827;51.186;6.926;2023-11-21T00:49:22;3.03;;;1.90;;
65238;SDS011;51827;51.186;6.926;2023-11-21T00:50:22;3.87;;;2.07;;
65238;SDS011;51827;51.186;6.926;2023-11-21T00:51:23;2.97;;;2.00;;
65238;SDS011;51827;51.186;6.926;2023-11-21T00:52:23;3.27;;;1.87;;
65238;SDS011;51827;51.186;6.926;2023-11-21T00:53:23;4.00;;;1.70;;
65238;SDS011;51827;51.186;6.926;2023-11-21T00:54:23;2.30;;;1.60;;
65238;SDS011;51827;51.186;6.926;2023-11-21T00:55:23;3.97;;;1.70;;
65238;SDS011;51827;51.186;6.926;2023-11-21T00:56:24;3.67;;;1.80;;
65238;SDS011;51827;51.186;6.926;2023-11-21T00:57:24;3.07;;;1.90;;
65238;SDS011;51827;51.186;6.926;2023-11-21T00:58:24;3.30;;;1.57;;
65238;SDS011;51827;51.186;6.926;2023-11-21T00:59:25;3.00;;;1.90;;
65238;SDS011;51827;51.186;6.926;2023-11-21T01:00:25;3.43;;;1.77;;
65238;SDS011;51827;51.186;6.926;2023-11-21T01:01:25;2.85;;;1.80;;
65238;SDS011;51827;51.186;6.926;2023-11-21T01:02:25;2.73;;;1.67;;
65238;SDS011;51827;51.186;6.926;2023-11-21T01:03:26;2.50;;;1.63;;
65238;SDS011;51827;51.186;6.926;2023-11-21T01:04:26;2.77;;;1.93;;
65238;SDS011;51827;51.186;6.926;2023-11-21T01:05:27;3.05;;;1.80;;
65238;SDS011;51827;51.186;6.926;2023-11-21T01:06:27;3.80;;;1.80;;
65238;SDS011;51827;51.186;6.926;2023-11-21T01:07:27;5.50;;;1.90;;
65238;SDS011;51827;51.186;6.926;2023-11-21T01:08:27;2.83;;;1.80;;
65238;SDS011;51827;51.186;6.926;2023-11-21T01:09:28;3.10;;;1.83;;
65238;SDS011;51827;51.186;6.926;2023-11-21T01:10:28;4.17;;;2.00;;
65238;SDS011;51827;51.186;6.926;2023-11-21T01:11:28;3.13;;;1.70;;
65238;SDS011;51827;51.186;6.926;2023-11-21T01:12:28;2.57;;;1.50;;
65238;SDS011;51827;51.186;6.926;2023-11-21T01:13:29;2.70;;;1.70;;
65238;SDS011;51827;51.186;6.926;2023-11-21T01:14:29;3.83;;;1.70;;
65238;SDS011;51827;51.186;6.926;2023-11-21T01:15:29;2.20;;;1.57;;
65238;SDS011;51827;51.186;6.926;2023-11-21T01:16:30;2.73;;;1.70;;
65238;SDS011;51827;51.186;6.926;2023-11-21T01:17:30;2.97;;;1.80;;
65238;SDS011;51827;51.186;6.926;2023-11-21T01:18:30;2.93;;;1.80;;
65238;SDS011;51827;51.186;6.926;2023-11-21T01:19:30;3.57;;;1.73;;
65238;SDS011;51827;51.186;6.926;2023-11-21T01:20:31;2.80;;;1.63;;
65238;SDS011;51827;51.186;6.926;2023-11-21T01:21:31;3.03;;;1.70;;
65238;SDS011;51827;51.186;6.926;2023-11-21T01:22:31;3.13;;;2.00;;
65238;SDS011;51827;51.186;6.926;2023-11-21T01:23:32;3.00;;;1.80;;
65238;SDS011;51827;51.186;6.926;2023-11-21T01:24:32;3.13;;;1.83;;
65238;SDS011;51827;51.186;6.926;2023-11-21T01:25:32;5.00;;;1.93;;
65238;SDS011;51827;51.186;6.926;2023-11-21T01:26:33;3.03;;;1.70;;
65238;SDS011;51827;51.186;6.926;2023-11-21T01:27:33;3.05;;;1.80;;
65238;SDS011;51827;51.186;6.926;2023-11-21T01:29:34;2.73;;;1.70;;
65238;SDS011;51827;51.186;6.926;2023-11-21T01:30:35;4.67;;;2.00;;
65238;SDS011;51827;51.186;6.926;2023-11-21T01:31:35;3.63;;;1.80;;
65238;SDS011;51827;51.186;6.926;2023-11-21T01:32:36;2.63;;;1.67;;
65238;SDS011;51827;51.186;6.926;2023-11-21T01:33:36;3.90;;;1.65;;
65238;SDS011;51827;51.186;6.926;2023-11-21T01:34:36;3.03;;;1.70;;
65238;SDS011;51827;51.186;6.926;2023-11-21T01:35:37;3.80;;;1.80;;
65238;SDS011;51827;51.186;6.926;2023-11-21T01:36:39;2.53;;;1.50;;
65238;SDS011;51827;51.186;6.926;2023-11-21T01:37:39;3.50;;;1.90;;
65238;SDS011;51827;51.186;6.926;2023-11-21T01:38:40;3.07;;;1.67;;
65238;SDS011;51827;51.186;6.926;2023-11-21T01:39:40;3.63;;;1.87;;
65238;SDS011;51827;51.186;6.926;2023-11-21T01:40:40;3.13;;;1.80;;
65238;SDS011;51827;51.186;6.926;2023-11-21T01:41:40;2.43;;;1.63;;
65238;SDS011;51827;51.186;6.926;2023-11-21T01:42:41;2.33;;;1.70;;
65238;SDS011;51827;51.186;6.926;2023-11-21T01:44:42;3.63;;;1.80;;
65238;SDS011;51827;51.186;6.926;2023-11-21T01:45:42;2.97;;;1.47;;
65238;SDS011;51827;51.186;6.926;2023-11-21T01:46:42;3.60;;;1.80;;
65238;SDS011;51827;51.186;6.926;2023-11-21T01:47:43;3.83;;;1.63;;
65238;SDS011;51827;51.186;6.926;2023-11-21T01:48:45;4.43;;;1.83;;
65238;SDS011;51827;51.186;6.926;2023-11-21T01:49:45;5.43;;;2.00;;
65238;SDS011;51827;51.186;6.926;2023-11-21T01:50:46;3.58;;;1.90;;
65238;SDS011;51827;51.186;6.926;2023-11-21T01:51:47;3.30;;;1.80;;
65238;SDS011;51827;51.186;6.926;2023-11-21T01:52:49;2.95;;;1.70;;
65238;SDS011;51827;51.186;6.926;2023-11-21T01:53:53;2.47;;;1.73;;
65238;SDS011;51827;51.186;6.926;2023-11-21T01:54:53;2.63;;;1.70;;
65238;SDS011;51827;51.186;6.926;2023-11-21T01:55:54;3.60;;;1.80;;
65238;SDS011;51827;51.186;6.926;2023-11-21T01:56:55;2.90;;;1.70;;
65238;SDS011;51827;51.186;6.926;2023-11-21T01:57:58;3.28;;;1.80;;
65238;SDS011;51827;51.186;6.926;2023-11-21T01:58:58;5.68;;;1.95;;
65238;SDS011;51827;51.186;6.926;2023-11-21T01:59:58;2.77;;;1.50;;
65238;SDS011;51827;51.186;6.926;2023-11-21T02:01:01;3.05;;;1.75;;
65238;SDS011;51827;51.186;6.926;2023-11-21T02:02:10;2.90;;;1.80;;
65238;SDS011;51827;51.186;6.926;2023-11-21T02:03:11;2.92;;;1.67;;
65238;SDS011;51827;51.186;6.926;2023-11-21T02:04:11;3.93;;;2.00;;
65238;SDS011;51827;51.186;6.926;2023-11-21T02:05:11;3.87;;;1.77;;
65238;SDS011;51827;51.186;6.926;2023-11-21T02:06:13;2.80;;;1.75;;
65238;SDS011;51827;51.186;6.926;2023-11-21T02:07:13;3.20;;;1.60;;
65238;SDS011;51827;51.186;6.926;2023-11-21T02:08:13;3.03;;;1.70;;
65238;SDS011;51827;51.186;6.926;2023-11-21T02:09:13;3.07;;;1.60;;
65238;SDS011;51827;51.186;6.926;2023-11-21T02:10:14;3.37;;;1.57;;
65238;SDS011;51827;51.186;6.926;2023-11-21T02:11:15;2.78;;;1.95;;
65238;SDS011;51827;51.186;6.926;2023-11-21T02:12:15;4.73;;;2.07;;
65238;SDS011;51827;51.186;6.926;2023-11-21T02:13:16;4.30;;;1.70;;
65238;SDS011;51827;51.186;6.926;2023-11-21T02:14:16;2.90;;;1.70;;
65238;SDS011;51827;51.186;6.926;2023-11-21T02:15:16;3.47;;;1.87;;
65238;SDS011;51827;51.186;6.926;2023-11-21T02:16:17;3.30;;;1.67;;
65238;SDS011;51827;51.186;6.926;2023-11-21T02:17:17;3.50;;;1.60;;
65238;SDS011;51827;51.186;6.926;2023-11-21T02:18:17;3.63;;;1.90;;
65238;SDS011;51827;51.186;6.926;2023-11-21T02:19:18;3.53;;;1.97;;
65238;SDS011;51827;51.186;6.926;2023-11-21T02:21:20;3.77;;;1.83;;
65238;SDS011;51827;51.186;6.926;2023-11-21T02:22:20;2.40;;;1.60;;
65238;SDS011;51827;51.186;6.926;2023-11-21T02:23:21;2.65;;;1.67;;
65238;SDS011;51827;51.186;6.926;2023-11-21T02:24:21;4.00;;;2.00;;
65238;SDS011;51827;51.186;6.926;2023-11-21T02:26:22;3.97;;;1.70;;
65238;SDS011;51827;51.186;6.926;2023-11-21T02:27:23;3.20;;;1.80;;
65238;SDS011;51827;51.186;6.926;2023-11-21T02:28:24;3.50;;;1.92;;
65238;SDS011;51827;51.186;6.926;2023-11-21T02:29:24;3.17;;;1.70;;
65238;SDS011;51827;51.186;6.926;2023-11-21T02:30:25;2.70;;;1.80;;
65238;SDS011;51827;51.186;6.926;2023-11-21T02:31:25;2.72;;;1.70;;
65238;SDS011;51827;51.186;6.926;2023-11-21T02:32:25;3.63;;;1.80;;
65238;SDS011;51827;51.186;6.926;2023-11-21T02:33:25;2.67;;;1.80;;
65238;SDS011;51827;51.186;6.926;2023-11-21T02:34:26;3.03;;;1.80;;
65238;SDS011;51827;51.186;6.926;2023-11-21T02:35:26;2.50;;;1.60;;
65238;SDS011;51827;51.186;6.926;2023-11-21T02:36:26;3.78;;;1.80;;
65238;SDS011;51827;51.186;6.926;2023-11-21T02:37:27;2.83;;;1.87;;
65238;SDS011;51827;51.186;6.926;2023-11-21T02:38:27;2.73;;;1.60;;
65238;SDS011;51827;51.186;6.926;2023-11-21T02:39:27;2.60;;;1.60;;
65238;SDS011;51827;51.186;6.926;2023-11-21T02:40:28;3.63;;;1.90;;
65238;SDS011;51827;51.186;6.926;2023-11-21T02:41:29;2.95;;;1.60;;
65238;SDS011;51827;51.186;6.926;2023-11-21T02:42:29;2.90;;;1.60;;
65238;SDS011;51827;51.186;6.926;2023-11-21T02:43:30;3.88;;;1.75;;
65238;SDS011;51827;51.186;6.926;2023-11-21T02:44:30;3.07;;;1.77;;
65238;SDS011;51827;51.186;6.926;2023-11-21T02:45:30;3.90;;;1.93;;
65238;SDS011;51827;51.186;6.926;2023-11-21T02:46:30;2.87;;;1.53;;
65238;SDS011;51827;51.186;6.926;2023-11-21T02:47:31;3.03;;;1.70;;
65238;SDS011;51827;51.186;6.926;2023-11-21T02:48:31;3.80;;;1.63;;
65238;SDS011;51827;51.186;6.926;2023-11-21T02:49:31;2.80;;;1.70;;
65238;SDS011;51827;51.186;6.926;2023-11-21T02:50:31;2.73;;;1.73;;
65238;SDS011;51827;51.186;6.926;2023-11-21T02:51:32;4.03;;;1.70;;
65238;SDS011;51827;51.186;6.926;2023-11-21T02:52:33;2.83;;;1.65;;
65238;SDS011;51827;51.186;6.926;2023-11-21T02:53:33;2.17;;;1.67;;
65238;SDS011;51827;51.186;6.926;2023-11-21T02:54:33;2.70;;;1.57;;
65238;SDS011;51827;51.186;6.926;2023-11-21T02:55:33;2.30;;;1.40;;
65238;SDS011;51827;51.186;6.926;2023-11-21T02:56:34;3.07;;;1.70;;
65238;SDS011;51827;51.186;6.926;2023-11-21T02:57:34;2.03;;;1.50;;
65238;SDS011;51827;51.186;6.926;2023-11-21T02:58:34;2.70;;;1.70;;
65238;SDS011;51827;51.186;6.926;2023-11-21T02:59:34;2.97;;;1.63;;
65238;SDS011;51827;51.186;6.926;2023-11-21T03:00:35;3.53;;;1.70;;
65238;SDS011;51827;51.186;6.926;2023-11-21T03:01:35;2.77;;;1.63;;
65238;SDS011;51827;51.186;6.926;2023-11-21T03:02:35;3.23;;;1.80;;
65238;SDS011;51827;51.186;6.926;2023-11-21T03:03:35;2.27;;;1.60;;
65238;SDS011;51827;51.186;6.926;2023-11-21T03:04:35;3.47;;;1.77;;
65238;SDS011;51827;51.186;6.926;2023-11-21T03:05:36;2.73;;;1.80;;
65238;SDS011;51827;51.186;6.926;2023-11-21T03:06:36;3.93;;;1.57;;
65238;SDS011;51827;51.186;6.926;2023-11-21T03:07:37;2.57;;;1.60;;
65238;SDS011;51827;51.186;6.926;2023-11-21T03:08:38;2.85;;;1.58;;
65238;SDS011;51827;51.186;6.926;2023-11-21T03:09:38;3.90;;;1.70;;
65238;SDS011;51827;51.186;6.926;2023-11-21T03:10:38;3.37;;;1.70;;
65238;SDS011;51827;51.186;6.926;2023-11-21T03:11:38;2.40;;;1.60;;
65238;SDS011;51827;51.186;6.926;2023-11-21T03:12:39;2.73;;;1.60;;
65238;SDS011;51827;51.186;6.926;2023-11-21T03:13:40;3.67;;;1.70;;
65238;SDS011;51827;51.186;6.926;2023-11-21T03:15:41;3.83;;;1.50;;
65238;SDS011;51827;51.186;6.926;2023-11-21T03:16:41;3.73;;;2.00;;
65238;SDS011;51827;51.186;6.926;2023-11-21T03:17:41;3.00;;;1.60;;
65238;SDS011;51827;51.186;6.926;2023-11-21T03:18:42;3.20;;;1.47;;
65238;SDS011;51827;51.186;6.926;2023-11-21T03:19:42;2.90;;;1.60;;
65238;SDS011;51827;51.186;6.926;2023-11-21T03:20:43;3.13;;;1.70;;
65238;SDS011;51827;51.186;6.926;2023-11-21T03:21:43;2.95;;;1.50;;
65238;SDS011;51827;51.186;6.926;2023-11-21T03:22:44;3.73;;;1.57;;
65238;SDS011;51827;51.186;6.926;2023-11-21T03:23:44;4.43;;;1.77;;
65238;SDS011;51827;51.186;6.926;2023-11-21T03:24:44;2.63;;;1.63;;
65238;SDS011;51827;51.186;6.926;2023-11-21T03:25:44;2.90;;;1.53;;
65238;SDS011;51827;51.186;6.926;2023-11-21T03:26:45;2.47;;;1.80;;
65238;SDS011;51827;51.186;6.926;2023-11-21T03:27:45;2.58;;;1.60;;
65238;SDS011;51827;51.186;6.926;2023-11-21T03:28:46;2.60;;;1.80;;
65238;SDS011;51827;51.186;6.926;2023-11-21T03:29:46;2.37;;;1.60;;
65238;SDS011;51827;51.186;6.926;2023-11-21T03:30:48;3.70;;;1.80;;
65238;SDS011;51827;51.186;6.926;2023-11-21T03:31:48;4.27;;;1.53;;
65238;SDS011;51827;51.186;6.926;2023-11-21T03:32:48;2.40;;;1.40;;
65238;SDS011;51827;51.186;6.926;2023-11-21T03:33:48;2.80;;;1.57;;
65238;SDS011;51827;51.186;6.926;2023-11-21T03:34:55;2.30;;;1.60;;
65238;SDS011;51827;51.186;6.926;2023-11-21T03:35:57;2.80;;;1.63;;
65238;SDS011;51827;51.186;6.926;2023-11-21T03:36:57;3.77;;;1.90;;
65238;SDS011;51827;51.186;6.926;2023-11-21T03:37:57;2.40;;;1.50;;
65238;SDS011;51827;51.186;6.926;2023-11-21T03:38:57;2.63;;;1.60;;
65238;SDS011;51827;51.186;6.926;2023-11-21T03:39:57;2.33;;;1.43;;
65238;SDS011;51827;51.186;6.926;2023-11-21T03:40:58;2.13;;;1.50;;
65238;SDS011;51827;51.186;6.926;2023-11-21T03:41:58;2.03;;;1.50;;
65238;SDS011;51827;51.186;6.926;2023-11-21T03:42:58;2.30;;;1.50;;
65238;SDS011;51827;51.186;6.926;2023-11-21T03:43:59;3.27;;;1.60;;
65238;SDS011;51827;51.186;6.926;2023-11-21T03:44:59;2.47;;;1.47;;
65238;SDS011;51827;51.186;6.926;2023-11-21T03:45:59;2.97;;;1.50;;
65238;SDS011;51827;51.186;6.926;2023-11-21T03:46:59;2.80;;;1.50;;
65238;SDS011;51827;51.186;6.926;2023-11-21T03:48:00;3.80;;;1.43;;
65238;SDS011;51827;51.186;6.926;2023-11-21T03:49:00;2.50;;;1.50;;
65238;SDS011;51827;51.186;6.926;2023-11-21T03:50:00;3.37;;;1.70;;
65238;SDS011;51827;51.186;6.926;2023-11-21T03:51:01;2.45;;;1.50;;
65238;SDS011;51827;51.186;6.926;2023-11-21T03:52:01;2.63;;;1.40;;
65238;SDS011;51827;51.186;6.926;2023-11-21T03:53:01;2.53;;;1.67;;
65238;SDS011;51827;51.186;6.926;2023-11-21T03:54:01;2.10;;;1.30;;
65238;SDS011;51827;51.186;6.926;2023-11-21T03:55:02;3.05;;;1.50;;
65238;SDS011;51827;51.186;6.926;2023-11-21T03:56:02;2.20;;;1.50;;
65238;SDS011;51827;51.186;6.926;2023-11-21T03:57:03;2.67;;;1.52;;
65238;SDS011;51827;51.186;6.926;2023-11-21T03:58:04;2.70;;;1.50;;
65238;SDS011;51827;51.186;6.926;2023-11-21T03:59:04;2.47;;;1.50;;
65238;SDS011;51827;51.186;6.926;2023-11-21T04:00:04;2.50;;;1.50;;
65238;SDS011;51827;51.186;6.926;2023-11-21T04:01:05;2.65;;;1.67;;
65238;SDS011;51827;51.186;6.926;2023-11-21T04:02:06;3.95;;;1.70;;
65238;SDS011;51827;51.186;6.926;2023-11-21T04:03:06;2.43;;;1.40;;
65238;SDS011;51827;51.186;6.926;2023-11-21T04:04:06;3.33;;;1.60;;
65238;SDS011;51827;51.186;6.926;2023-11-21T04:05:06;2.60;;;1.50;;
65238;SDS011;51827;51.186;6.926;2023-11-21T04:06:07;3.97;;;1.80;;
65238;SDS011;51827;51.186;6.926;2023-11-21T04:07:07;2.28;;;1.50;;
65238;SDS011;51827;51.186;6.926;2023-11-21T04:08:08;2.20;;;1.47;;
65238;SDS011;51827;51.186;6.926;2023-11-21T04:09:08;3.00;;;1.63;;
65238;SDS011;51827;51.186;6.926;2023-11-21T04:10:08;2.53;;;1.53;;
65238;SDS011;51827;51.186;6.926;2023-11-21T04:11:09;5.60;;;1.70;;
65238;SDS011;51827;51.186;6.926;2023-11-21T04:12:17;2.92;;;1.77;;
65238;SDS011;51827;51.186;6.926;2023-11-21T04:13:38;2.55;;;1.58;;
65238;SDS011;51827;51.186;6.926;2023-11-21T04:14:39;4.22;;;1.67;;
65238;SDS011;51827;51.186;6.926;2023-11-21T04:15:39;2.97;;;1.67;;
65238;SDS011;51827;51.186;6.926;2023-11-21T04:16:40;2.50;;;1.47;;
65238;SDS011;51827;51.186;6.926;2023-11-21T04:17:41;2.55;;;1.70;;
65238;SDS011;51827;51.186;6.926;2023-11-21T04:18:41;4.30;;;1.70;;
65238;SDS011;51827;51.186;6.926;2023-11-21T04:19:41;2.23;;;1.50;;
65238;SDS011;51827;51.186;6.926;2023-11-21T04:20:42;2.83;;;1.50;;
65238;SDS011;51827;51.186;6.926;2023-11-21T04:21:42;3.10;;;1.53;;
65238;SDS011;51827;51.186;6.926;2023-11-21T04:22:43;2.85;;;1.60;;
65238;SDS011;51827;51.186;6.926;2023-11-21T04:24:44;3.00;;;1.40;;
65238;SDS011;51827;51.186;6.926;2023-11-21T04:25:44;4.70;;;1.57;;
65238;SDS011;51827;51.186;6.926;2023-11-21T04:26:44;3.70;;;1.73;;
65238;SDS011;51827;51.186;6.926;2023-11-21T04:27:45;3.10;;;1.33;;
65238;SDS011;51827;51.186;6.926;2023-11-21T04:28:45;2.70;;;1.70;;
65238;SDS011;51827;51.186;6.926;2023-11-21T04:29:45;2.73;;;1.40;;
65238;SDS011;51827;51.186;6.926;2023-11-21T04:30:46;3.50;;;1.43;;
65238;SDS011;51827;51.186;6.926;2023-11-21T04:31:46;2.77;;;1.50;;
65238;SDS011;51827;51.186;6.926;2023-11-21T04:32:46;2.83;;;1.75;;
65238;SDS011;51827;51.186;6.926;2023-11-21T04:33:47;2.27;;;1.60;;
65238;SDS011;51827;51.186;6.926;2023-11-21T04:34:47;2.90;;;1.70;;
65238;SDS011;51827;51.186;6.926;2023-11-21T04:35:47;2.37;;;1.40;;
65238;SDS011;51827;51.186;6.926;2023-11-21T04:36:47;3.50;;;1.47;;
65238;SDS011;51827;51.186;6.926;2023-11-21T04:37:48;3.40;;;1.70;;
65238;SDS011;51827;51.186;6.926;2023-11-21T04:38:48;2.80;;;1.70;;
65238;SDS011;51827;51.186;6.926;2023-11-21T04:39:48;2.43;;;1.50;;
65238;SDS011;51827;51.186;6.926;2023-11-21T04:40:48;4.17;;;1.80;;
65238;SDS011;51827;51.186;6.926;2023-11-21T04:41:49;2.83;;;1.60;;
65238;SDS011;51827;51.186;6.926;2023-11-21T04:42:50;3.33;;;1.70;;
65238;SDS011;51827;51.186;6.926;2023-11-21T04:43:50;4.00;;;2.07;;
65238;SDS011;51827;51.186;6.926;2023-11-21T04:44:50;2.37;;;1.60;;
65238;SDS011;51827;51.186;6.926;2023-11-21T04:45:50;3.63;;;1.67;;
65238;SDS011;51827;51.186;6.926;2023-11-21T04:46:51;2.30;;;1.50;;
65238;SDS011;51827;51.186;6.926;2023-11-21T04:47:51;3.10;;;1.77;;
65238;SDS011;51827;51.186;6.926;2023-11-21T04:48:51;3.27;;;1.80;;
65238;SDS011;51827;51.186;6.926;2023-11-21T04:49:51;7.20;;;1.67;;
65238;SDS011;51827;51.186;6.926;2023-11-21T04:50:52;2.63;;;1.63;;
65238;SDS011;51827;51.186;6.926;2023-11-21T04:51:52;2.77;;;1.50;;
65238;SDS011;51827;51.186;6.926;2023-11-21T04:52:52;6.07;;;1.70;;
65238;SDS011;51827;51.186;6.926;2023-11-21T04:53:52;4.30;;;1.63;;
65238;SDS011;51827;51.186;6.926;2023-11-21T04:54:52;2.80;;;1.43;;
65238;SDS011;51827;51.186;6.926;2023-11-21T04:55:53;5.37;;;1.80;;
65238;SDS011;51827;51.186;6.926;2023-11-21T04:56:53;6.83;;;1.80;;
65238;SDS011;51827;51.186;6.926;2023-11-21T04:57:53;3.47;;;1.70;;
65238;SDS011;51827;51.186;6.926;2023-11-21T04:58:54;4.05;;;1.70;;
65238;SDS011;51827;51.186;6.926;2023-11-21T04:59:54;7.00;;;2.10;;
65238;SDS011;51827;51.186;6.926;2023-11-21T05:00:54;5.50;;;2.13;;
65238;SDS011;51827;51.186;6.926;2023-11-21T05:01:55;7.10;;;2.53;;
65238;SDS011;51827;51.186;6.926;2023-11-21T05:02:55;4.63;;;2.20;;
65238;SDS011;51827;51.186;6.926;2023-11-21T05:03:55;5.13;;;2.50;;
65238;SDS011;51827;51.186;6.926;2023-11-21T05:04:55;4.97;;;2.40;;
65238;SDS011;51827;51.186;6.926;2023-11-21T05:05:56;6.13;;;2.40;;
65238;SDS011;51827;51.186;6.926;2023-11-21T05:06:56;7.03;;;2.30;;
65238;SDS011;51827;51.186;6.926;2023-11-21T05:07:56;8.03;;;2.47;;
65238;SDS011;51827;51.186;6.926;2023-11-21T05:08:56;6.07;;;2.77;;
65238;SDS011;51827;51.186;6.926;2023-11-21T05:09:57;11.27;;;3.90;;
65238;SDS011;51827;51.186;6.926;2023-11-21T05:10:57;8.57;;;4.80;;
65238;SDS011;51827;51.186;6.926;2023-11-21T05:11:57;9.30;;;5.00;;
65238;SDS011;51827;51.186;6.926;2023-11-21T05:12:58;13.85;;;5.32;;
65238;SDS011;51827;51.186;6.926;2023-11-21T05:13:58;8.00;;;5.00;;
65238;SDS011;51827;51.186;6.926;2023-11-21T05:14:58;10.43;;;5.23;;
65238;SDS011;51827;51.186;6.926;2023-11-21T05:15:58;10.07;;;5.27;;
65238;SDS011;51827;51.186;6.926;2023-11-21T05:16:59;12.70;;;5.60;;
65238;SDS011;51827;51.186;6.926;2023-11-21T05:17:59;17.20;;;5.47;;
65238;SDS011;51827;51.186;6.926;2023-11-21T05:18:59;12.27;;;4.97;;
65238;SDS011;51827;51.186;6.926;2023-11-21T05:19:59;11.67;;;4.80;;
65238;SDS011;51827;51.186;6.926;2023-11-21T05:21:00;12.57;;;5.33;;
65238;SDS011;51827;51.186;6.926;2023-11-21T05:22:00;11.57;;;4.97;;
65238;SDS011;51827;51.186;6.926;2023-11-21T05:23:00;10.73;;;4.63;;
65238;SDS011;51827;51.186;6.926;2023-11-21T05:24:00;10.63;;;4.67;;
65238;SDS011;51827;51.186;6.926;2023-11-21T05:25:01;10.50;;;4.30;;
65238;SDS011;51827;51.186;6.926;2023-11-21T05:26:02;10.48;;;3.97;;
65238;SDS011;51827;51.186;6.926;2023-11-21T05:27:03;10.63;;;4.15;;
65238;SDS011;51827;51.186;6.926;2023-11-21T05:28:03;11.38;;;3.80;;
65238;SDS011;51827;51.186;6.926;2023-11-21T05:29:04;12.03;;;4.30;;
65238;SDS011;51827;51.186;6.926;2023-11-21T05:30:05;12.50;;;3.97;;
65238;SDS011;51827;51.186;6.926;2023-11-21T05:31:06;10.43;;;3.78;;
65238;SDS011;51827;51.186;6.926;2023-11-21T05:32:07;7.97;;;3.30;;
65238;SDS011;51827;51.186;6.926;2023-11-21T05:33:07;9.37;;;3.60;;
65238;SDS011;51827;51.186;6.926;2023-11-21T05:34:07;12.37;;;3.47;;
65238;SDS011;51827;51.186;6.926;2023-11-21T05:35:07;6.97;;;3.43;;
65238;SDS011;51827;51.186;6.926;2023-11-21T05:36:08;7.83;;;3.40;;
65238;SDS011;51827;51.186;6.926;2023-11-21T05:37:08;9.10;;;3.28;;
65238;SDS011;51827;51.186;6.926;2023-11-21T05:38:08;5.53;;;2.87;;
65238;SDS011;51827;51.186;6.926;2023-11-21T05:39:08;5.47;;;3.37;;
65238;SDS011;51827;51.186;6.926;2023-11-21T05:40:09;8.27;;;2.73;;
65238;SDS011;51827;51.186;6.926;2023-11-21T05:41:09;9.80;;;3.13;;
65238;SDS011;51827;51.186;6.926;2023-11-21T05:42:10;7.07;;;2.67;;
65238;SDS011;51827;51.186;6.926;2023-11-21T05:43:10;7.03;;;2.80;;
65238;SDS011;51827;51.186;6.926;2023-11-21T05:44:10;5.63;;;2.83;;
65238;SDS011;51827;51.186;6.926;2023-11-21T05:45:10;7.40;;;2.93;;
65238;SDS011;51827;51.186;6.926;2023-11-21T05:46:11;10.37;;;3.20;;
65238;SDS011;51827;51.186;6.926;2023-11-21T05:47:11;4.63;;;2.60;;
65238;SDS011;51827;51.186;6.926;2023-11-21T05:48:11;5.53;;;2.53;;
65238;SDS011;51827;51.186;6.926;2023-11-21T05:49:12;7.20;;;2.47;;
65238;SDS011;51827;51.186;6.926;2023-11-21T05:50:13;17.80;;;2.77;;
65238;SDS011;51827;51.186;6.926;2023-11-21T05:51:14;5.72;;;2.70;;
65238;SDS011;51827;51.186;6.926;2023-11-21T05:52:14;10.07;;;2.70;;
65238;SDS011;51827;51.186;6.926;2023-11-21T05:53:15;5.73;;;2.70;;
65238;SDS011;51827;51.186;6.926;2023-11-21T05:54:15;7.30;;;2.50;;
65238;SDS011;51827;51.186;6.926;2023-11-21T05:55:16;7.30;;;2.77;;
65238;SDS011;51827;51.186;6.926;2023-11-21T05:56:16;6.20;;;2.23;;
65238;SDS011;51827;51.186;6.926;2023-11-21T05:57:16;6.90;;;2.50;;
65238;SDS011;51827;51.186;6.926;2023-11-21T05:58:16;3.73;;;2.13;;
65238;SDS011;51827;51.186;6.926;2023-11-21T05:59:17;4.20;;;2.20;;
65238;SDS011;51827;51.186;6.926;2023-11-21T06:00:17;4.23;;;2.23;;
65238;SDS011;51827;51.186;6.926;2023-11-21T06:01:17;5.70;;;2.50;;
65238;SDS011;51827;51.186;6.926;2023-11-21T06:02:17;4.33;;;1.80;;
65238;SDS011;51827;51.186;6.926;2023-11-21T06:03:18;6.70;;;2.17;;
65238;SDS011;51827;51.186;6.926;2023-11-21T06:04:18;3.90;;;2.00;;
65238;SDS011;51827;51.186;6.926;2023-11-21T06:05:19;4.10;;;2.10;;
65238;SDS011;51827;51.186;6.926;2023-11-21T06:06:20;5.63;;;2.25;;
65238;SDS011;51827;51.186;6.926;2023-11-21T06:08:21;7.67;;;2.20;;
65238;SDS011;51827;51.186;6.926;2023-11-21T06:09:21;4.00;;;2.10;;
65238;SDS011;51827;51.186;6.926;2023-11-21T06:10:22;3.60;;;1.90;;
65238;SDS011;51827;51.186;6.926;2023-11-21T06:11:23;4.63;;;1.80;;